createdAt,value
2023-02-19T00:00:21.469Z,1204
2023-02-19T00:01:21.476Z,1056
2023-02-19T00:02:21.476Z,889
2023-02-19T00:04:21.684Z,1288
2023-02-19T00:05:21.461Z,1288
2023-02-19T00:06:21.472Z,1212
2023-02-19T00:07:21.490Z,1009
2023-02-19T00:09:21.728Z,1364
2023-02-19T00:10:21.495Z,930
2023-02-19T00:11:21.466Z,1310
2023-02-19T00:12:21.468Z,1291
2023-02-19T00:14:21.629Z,1349
2023-02-19T00:15:21.474Z,1029
2023-02-19T00:16:21.491Z,1077
2023-02-19T00:17:21.468Z,1302
2023-02-19T00:19:21.675Z,791
2023-02-19T00:20:21.464Z,1400
2023-02-19T00:21:21.471Z,1360
2023-02-19T00:22:21.472Z,1065
2023-02-19T00:24:21.691Z,1507
2023-02-19T00:25:21.469Z,964
2023-02-19T00:26:21.486Z,1201
2023-02-19T00:27:21.469Z,1191
2023-02-19T00:29:21.742Z,1352
2023-02-19T00:30:21.517Z,1150
2023-02-19T00:31:21.622Z,1083
2023-02-19T00:32:21.539Z,1291
2023-02-19T00:34:21.635Z,1416
2023-02-19T00:35:21.480Z,1224
2023-02-19T00:36:21.480Z,887
2023-02-19T00:37:21.472Z,1150
2023-02-19T00:39:21.676Z,920
2023-02-19T00:40:21.481Z,1393
2023-02-19T00:41:21.484Z,1372
2023-02-19T00:42:21.484Z,1110
2023-02-19T00:44:21.714Z,1432
2023-02-19T00:45:21.482Z,940
2023-02-19T00:46:21.508Z,1134
2023-02-19T00:47:21.485Z,1262
2023-02-19T00:49:21.715Z,1277
2023-02-19T00:50:21.491Z,1266
2023-02-19T00:51:21.499Z,1009
2023-02-19T00:52:21.507Z,1324
2023-02-19T00:54:21.718Z,1288
2023-02-19T00:55:21.521Z,1356
2023-02-19T00:56:21.503Z,1004
2023-02-19T00:57:21.517Z,1400
2023-02-19T00:59:21.692Z,1487
2023-02-19T01:00:21.492Z,1004
2023-02-19T01:01:21.579Z,1408
2023-02-19T01:02:21.522Z,1081
2023-02-19T01:04:21.700Z,1478
2023-02-19T01:05:21.494Z,1062
2023-02-19T01:06:21.517Z,1367
2023-02-19T01:07:21.493Z,1372
2023-02-19T01:09:21.691Z,1262
2023-02-19T01:10:21.483Z,1360
2023-02-19T01:11:21.492Z,1071
2023-02-19T01:12:21.489Z,1507
2023-02-19T01:14:21.724Z,1156
2023-02-19T01:15:21.491Z,1408
2023-02-19T01:16:21.512Z,1404
2023-02-19T01:17:21.491Z,872
2023-02-19T01:19:21.726Z,1245
2023-02-19T01:20:21.491Z,1032
2023-02-19T01:21:21.531Z,1259
2023-02-19T01:22:21.498Z,981
2023-02-19T01:24:21.637Z,1313
2023-02-19T01:25:21.519Z,987
2023-02-19T01:26:21.512Z,1307
2023-02-19T01:27:21.497Z,1288
2023-02-19T01:29:21.643Z,1441
2023-02-19T01:30:21.515Z,1465
2023-02-19T01:31:21.633Z,1090
2023-02-19T01:32:21.566Z,1432
2023-02-19T01:34:21.695Z,1470
2023-02-19T01:35:21.526Z,1056
2023-02-19T01:36:21.488Z,1341
2023-02-19T01:37:21.519Z,1321
2023-02-19T01:39:21.713Z,1330
2023-02-19T01:40:21.512Z,1352
2023-02-19T01:41:21.494Z,930
2023-02-19T01:42:21.508Z,1248
2023-02-19T01:44:21.654Z,889
2023-02-19T01:45:21.511Z,1065
2023-02-19T01:46:21.529Z,987
2023-02-19T01:47:21.509Z,1099
2023-02-19T01:49:21.725Z,1009
2023-02-19T01:50:21.509Z,1198
2023-02-19T01:51:21.512Z,1181
2023-02-19T01:52:21.511Z,887
2023-02-19T01:54:21.712Z,1201
2023-02-19T01:56:28.033Z,520
2023-02-19T01:57:27.987Z,530
2023-02-19T01:58:28.017Z,427
2023-02-19T02:00:28.229Z,603
2023-02-19T02:01:27.957Z,527
2023-02-19T02:02:27.975Z,548
2023-02-19T02:03:27.955Z,414
2023-02-19T02:05:28.155Z,492
2023-02-19T02:06:27.965Z,400
2023-02-19T02:07:27.970Z,600
2023-02-19T02:08:27.961Z,650
2023-02-19T02:10:28.139Z,615
2023-02-19T02:11:27.960Z,645
2023-02-19T02:12:27.981Z,460
2023-02-19T02:13:28.020Z,476
2023-02-19T02:15:28.170Z,492
2023-02-19T02:16:28.048Z,634
2023-02-19T02:17:28.025Z,498
2023-02-19T02:18:28.033Z,427
2023-02-19T02:20:28.160Z,400
2023-02-19T02:21:27.977Z,682
2023-02-19T02:22:27.971Z,657
2023-02-19T02:23:27.974Z,546
2023-02-19T02:25:28.172Z,682
2023-02-19T02:26:28.013Z,586
2023-02-19T02:27:27.972Z,754
2023-02-19T02:28:27.982Z,765
2023-02-19T02:30:28.175Z,567
2023-02-19T02:31:28.038Z,683
2023-02-19T02:32:27.972Z,742
2023-02-19T02:33:27.974Z,566
2023-02-19T02:35:28.159Z,761
2023-02-19T02:36:27.971Z,560
2023-02-19T02:37:27.994Z,518
2023-02-19T02:38:27.979Z,740
2023-02-19T02:40:28.181Z,742
2023-02-19T02:41:27.983Z,710
2023-02-19T02:42:28.041Z,708
2023-02-19T02:43:27.984Z,539
2023-02-19T02:45:28.232Z,690
2023-02-19T02:46:28.047Z,581
2023-02-19T02:47:28.041Z,400
2023-02-19T02:48:28.044Z,566
2023-02-19T02:50:28.171Z,420
2023-02-19T02:51:27.998Z,574
2023-02-19T02:52:27.988Z,464
2023-02-19T02:53:27.980Z,602
2023-02-19T02:55:28.153Z,491
2023-02-19T02:56:27.992Z,584
2023-02-19T02:57:28.048Z,555
2023-02-19T02:58:27.989Z,602
2023-02-19T03:00:28.176Z,603
2023-02-19T03:01:28.049Z,614
2023-02-19T03:02:28.011Z,470
2023-02-19T03:03:27.996Z,614
2023-02-19T03:05:28.182Z,434
2023-02-19T03:06:27.988Z,596
2023-02-19T03:07:28.023Z,600
2023-02-19T03:08:28.039Z,462
2023-02-19T03:10:28.190Z,589
2023-02-19T03:11:28.043Z,617
2023-02-19T03:12:27.992Z,520
2023-02-19T03:13:28.004Z,694
2023-02-19T03:15:28.187Z,686
2023-02-19T03:16:27.995Z,478
2023-02-19T03:17:27.999Z,617
2023-02-19T03:18:28.054Z,623
2023-02-19T03:20:28.176Z,640
2023-02-19T03:21:27.991Z,548
2023-02-19T03:22:28.001Z,459
2023-02-19T03:23:28.024Z,597
2023-02-19T03:25:28.166Z,413
2023-02-19T03:26:28.028Z,530
2023-02-19T03:27:28.012Z,539
2023-02-19T03:28:28.020Z,423
2023-02-19T03:30:28.204Z,643
2023-02-19T03:31:28.119Z,607
2023-02-19T03:32:28.015Z,785
2023-02-19T03:33:27.994Z,780
2023-02-19T03:35:28.174Z,675
2023-02-19T03:36:28.020Z,717
2023-02-19T03:37:27.991Z,549
2023-02-19T03:38:28.003Z,624
2023-02-19T03:40:28.173Z,690
2023-02-19T03:41:27.993Z,765
2023-02-19T03:42:28.051Z,726
2023-02-19T03:43:28.088Z,787
2023-02-19T03:45:28.210Z,668
2023-02-19T03:46:28.082Z,832
2023-02-19T03:47:28.057Z,765
2023-02-19T03:48:28.103Z,607
2023-02-19T03:50:28.201Z,817
2023-02-19T03:51:28.059Z,531
2023-02-19T03:52:27.995Z,502
2023-02-19T03:53:28.036Z,659
2023-02-19T03:55:28.179Z,699
2023-02-19T03:56:28.005Z,808
2023-02-19T03:57:28.019Z,591
2023-02-19T03:58:28.011Z,735
2023-02-19T04:00:28.226Z,556
2023-02-19T04:01:28.006Z,735
2023-02-19T04:02:28.085Z,744
2023-02-19T04:03:28.004Z,565
2023-02-19T04:05:28.255Z,641
2023-02-19T04:06:28.093Z,569
2023-02-19T04:07:28.072Z,592
2023-02-19T04:08:28.080Z,813
2023-02-19T04:10:28.207Z,574
2023-02-19T04:11:28.069Z,660
2023-02-19T04:12:28.037Z,666
2023-02-19T04:13:28.072Z,517
2023-02-19T04:15:28.229Z,699
2023-02-19T04:16:28.092Z,454
2023-02-19T04:17:28.016Z,611
2023-02-19T04:18:28.035Z,581
2023-02-19T04:20:28.224Z,548
2023-02-19T04:21:28.031Z,666
2023-02-19T04:22:28.038Z,517
2023-02-19T04:23:28.077Z,517
2023-02-19T04:25:28.256Z,517
2023-02-19T04:26:28.059Z,708
2023-02-19T04:27:28.039Z,678
2023-02-19T04:28:28.044Z,545
2023-02-19T04:30:28.376Z,633
2023-02-19T04:31:28.105Z,580
2023-02-19T04:32:28.024Z,659
2023-02-19T04:33:28.017Z,674
2023-02-19T04:35:28.208Z,700
2023-02-19T04:36:28.041Z,645
2023-02-19T04:37:28.075Z,503
2023-02-19T04:38:28.023Z,518
2023-02-19T04:40:28.214Z,503
2023-02-19T04:41:28.018Z,477
2023-02-19T04:42:28.029Z,617
2023-02-19T04:43:28.021Z,612
2023-02-19T04:45:28.204Z,570
2023-02-19T04:46:28.065Z,577
2023-02-19T04:47:28.039Z,517
2023-02-19T04:48:28.022Z,634
2023-02-19T04:50:28.208Z,517
2023-02-19T04:51:28.029Z,477
2023-02-19T04:52:28.047Z,477
2023-02-19T04:53:28.020Z,555
2023-02-19T04:55:28.213Z,567
2023-02-19T04:56:28.109Z,477
2023-02-19T04:57:28.060Z,564
2023-02-19T04:58:28.113Z,536
2023-02-19T05:00:28.275Z,533
2023-02-19T05:01:28.126Z,551
2023-02-19T05:02:28.058Z,574
2023-02-19T05:03:28.050Z,574
2023-02-19T05:05:28.210Z,552
2023-02-19T05:06:28.062Z,478
2023-02-19T05:07:28.035Z,407
2023-02-19T05:08:28.038Z,477
2023-02-19T05:10:28.224Z,425
2023-02-19T05:11:28.067Z,443
2023-02-19T05:12:28.027Z,524
2023-02-19T05:13:28.106Z,527
2023-02-19T05:15:28.221Z,524
2023-02-19T05:16:28.021Z,531
2023-02-19T05:17:28.037Z,460
2023-02-19T05:18:28.044Z,545
2023-02-19T05:20:28.244Z,460
2023-02-19T05:21:28.040Z,488
2023-02-19T05:22:28.060Z,466
2023-02-19T05:23:28.037Z,407
2023-02-19T05:25:28.221Z,496
2023-02-19T05:26:28.120Z,443
2023-02-19T05:27:28.107Z,551
2023-02-19T05:28:28.061Z,539
2023-02-19T05:30:28.234Z,524
2023-02-19T05:31:28.234Z,523
2023-02-19T05:32:28.053Z,427
2023-02-19T05:33:28.053Z,524
2023-02-19T05:35:28.209Z,427
2023-02-19T05:36:28.038Z,514
2023-02-19T05:37:28.051Z,502
2023-02-19T05:38:28.039Z,415
2023-02-19T05:40:28.224Z,505
2023-02-19T05:41:28.122Z,441
2023-02-19T05:42:28.102Z,539
2023-02-19T05:43:28.040Z,441
2023-02-19T05:45:28.213Z,542
2023-02-19T05:46:28.053Z,434
2023-02-19T05:47:28.139Z,529
2023-02-19T05:48:28.132Z,434
2023-02-19T05:50:28.252Z,506
2023-02-19T05:51:28.140Z,477
2023-02-19T05:52:28.102Z,415
2023-02-19T05:53:28.109Z,502
2023-02-19T05:55:28.253Z,415
2023-02-19T05:56:28.135Z,441
2023-02-19T05:57:28.110Z,493
2023-02-19T05:58:28.080Z,502
2023-02-19T06:00:28.304Z,514
2023-02-19T06:01:28.170Z,480
2023-02-19T06:02:28.085Z,409
2023-02-19T06:03:28.118Z,506
2023-02-19T06:05:28.245Z,409
2023-02-19T06:06:28.087Z,482
2023-02-19T06:07:28.055Z,497
2023-02-19T06:08:28.047Z,400
2023-02-19T06:10:28.260Z,470
2023-02-19T06:11:28.056Z,683
2023-02-19T06:12:28.063Z,515
2023-02-19T06:13:28.077Z,656
2023-02-19T06:15:28.282Z,529
2023-02-19T06:16:28.126Z,591
2023-02-19T06:17:28.074Z,584
2023-02-19T06:18:28.089Z,442
2023-02-19T06:20:28.312Z,586
2023-02-19T06:21:28.075Z,428
2023-02-19T06:22:28.128Z,567
2023-02-19T06:23:28.112Z,589
2023-02-19T06:25:28.330Z,569
2023-02-19T06:26:28.147Z,545
2023-02-19T06:27:28.128Z,482
2023-02-19T06:28:28.157Z,683
2023-02-19T06:30:28.290Z,702
2023-02-19T06:31:28.213Z,486
2023-02-19T06:32:28.205Z,682
2023-02-19T06:33:28.098Z,708
2023-02-19T06:35:28.322Z,697
2023-02-19T06:36:28.093Z,660
2023-02-19T06:37:28.113Z,491
2023-02-19T06:38:28.098Z,653
2023-02-19T06:40:28.272Z,456
2023-02-19T06:41:28.075Z,603
2023-02-19T06:42:28.121Z,589
2023-02-19T06:43:28.069Z,627
2023-02-19T06:45:28.275Z,591
2023-02-19T06:46:28.180Z,488
2023-02-19T06:47:28.073Z,699
2023-02-19T06:48:28.102Z,495
2023-02-19T06:50:28.321Z,678
2023-02-19T06:51:28.106Z,656
2023-02-19T06:52:28.082Z,475
2023-02-19T06:53:28.103Z,633
2023-02-19T06:55:28.271Z,459
2023-02-19T06:56:28.081Z,411
2023-02-19T06:57:28.171Z,602
2023-02-19T06:58:28.137Z,612
2023-02-19T07:00:28.291Z,487
2023-02-19T07:01:28.128Z,486
2023-02-19T07:02:28.196Z,496
2023-02-19T07:03:28.172Z,482
2023-02-19T07:05:28.274Z,659
2023-02-19T07:06:28.078Z,704
2023-02-19T07:07:28.141Z,508
2023-02-19T07:08:29.627Z,726
2023-02-19T07:10:28.344Z,626
2023-02-19T07:11:28.085Z,765
2023-02-19T07:12:28.165Z,614
2023-02-19T07:13:28.091Z,553
2023-02-19T07:14:28.197Z,552
2023-02-19T07:15:29.591Z,746
2023-02-19T07:16:29.508Z,783
2023-02-19T07:17:28.260Z,783
2023-02-19T07:18:28.091Z,802
2023-02-19T07:20:28.296Z,770
2023-02-19T07:23:03.041Z,549
2023-02-19T07:24:38.170Z,740
2023-02-19T07:25:37.943Z,742
2023-02-19T07:26:37.945Z,774
2023-02-19T07:27:37.980Z,774
2023-02-19T07:29:38.151Z,581
2023-02-19T07:30:37.966Z,787
2023-02-19T07:31:38.100Z,518
2023-02-19T07:32:37.975Z,808
2023-02-19T07:34:39.156Z,815
2023-02-19T07:35:38.042Z,659
2023-02-19T07:37:10.633Z,672
2023-02-19T07:38:08.878Z,672
2023-02-19T07:39:10.160Z,531
2023-02-19T07:40:09.993Z,480
2023-02-19T07:42:09.116Z,527
2023-02-19T07:43:09.023Z,742
2023-02-19T07:44:09.251Z,772
2023-02-19T07:45:48.649Z,793
2023-02-19T07:52:21.299Z,620
2023-02-19T07:53:20.347Z,806
2023-02-19T07:54:20.358Z,768
2023-02-19T07:56:20.382Z,543
2023-02-19T07:57:20.239Z,889
2023-02-19T07:58:20.322Z,959
2023-02-19T07:59:20.176Z,927
2023-02-19T08:01:20.389Z,887
2023-02-19T08:02:20.165Z,935
2023-02-19T08:03:20.226Z,949
2023-02-19T08:04:20.208Z,672
2023-02-19T08:06:20.384Z,844
2023-02-19T08:07:20.237Z,704
2023-02-19T08:08:20.245Z,819
2023-02-19T08:09:20.175Z,868
2023-02-19T08:11:20.388Z,780
2023-02-19T08:12:20.470Z,761
2023-02-19T08:13:20.250Z,891
2023-02-19T08:14:20.285Z,933
2023-02-19T08:16:29.955Z,907
2023-02-19T08:17:20.296Z,1014
2023-02-19T08:20:01.895Z,1029
2023-02-19T08:21:00.679Z,1083
2023-02-19T08:23:43.159Z,972
2023-02-19T08:24:43.137Z,1107
2023-02-19T08:25:43.152Z,791
2023-02-19T08:27:43.336Z,1105
2023-02-19T08:28:43.195Z,719
2023-02-19T08:29:43.145Z,951
2023-02-19T08:30:43.333Z,902
2023-02-19T08:32:43.328Z,1060
2023-02-19T08:33:43.156Z,1041
2023-02-19T08:34:43.167Z,497
2023-02-19T08:35:43.167Z,1029
2023-02-19T08:37:43.366Z,706
2023-02-19T08:38:43.141Z,1131
2023-02-19T08:39:43.137Z,1118
2023-02-19T08:40:43.206Z,887
2023-02-19T08:42:43.360Z,1316
2023-02-19T08:43:43.212Z,1238
2023-02-19T08:44:51.000Z,956
2023-02-19T08:45:43.272Z,1252
2023-02-19T08:47:43.345Z,1056
2023-02-19T08:48:43.150Z,992
2023-02-19T08:49:43.922Z,956
2023-02-19T08:50:43.364Z,1321
2023-02-19T08:52:38.400Z,1012
2023-02-19T08:53:38.625Z,902
2023-02-19T08:54:37.620Z,1281
2023-02-19T08:56:37.747Z,1081
2023-02-19T08:57:41.560Z,1252
2023-02-19T08:59:19.983Z,1204
2023-02-19T09:00:19.853Z,1081
2023-02-19T09:01:19.900Z,1266
2023-02-19T09:02:19.968Z,1191
2023-02-19T09:04:20.144Z,1053
2023-02-19T09:05:19.842Z,1281
2023-02-19T09:06:19.873Z,925
2023-02-19T09:07:19.919Z,940
2023-02-19T09:09:20.035Z,1345
2023-02-19T09:10:19.792Z,1065
2023-02-19T09:11:19.783Z,1630
2023-02-19T09:12:19.785Z,1558
2023-02-19T09:14:19.989Z,1507
2023-02-19T09:15:19.789Z,1478
2023-02-19T09:16:19.817Z,1093
2023-02-19T09:17:21.938Z,1144
2023-02-19T09:20:39.574Z,1445
2023-02-19T09:21:39.146Z,1552
2023-02-19T09:23:37.338Z,1569
2023-02-19T09:25:37.456Z,1552
2023-02-19T09:26:38.948Z,1007
2023-02-19T09:27:37.360Z,1356
2023-02-19T09:28:37.302Z,1041
2023-02-19T09:30:37.528Z,1150
2023-02-19T09:31:38.901Z,1478
2023-02-19T09:32:37.561Z,1150
2023-02-19T09:33:37.509Z,1470
2023-02-19T09:34:37.517Z,1159
2023-02-19T09:36:41.644Z,1544
2023-02-19T09:37:40.915Z,997
2023-02-19T09:38:41.064Z,1009
2023-02-19T09:40:29.575Z,990
2023-02-19T09:41:42.056Z,1385
2023-02-19T09:45:28.378Z,1207
2023-02-19T09:46:28.116Z,870
2023-02-19T09:47:27.886Z,1248
2023-02-19T09:48:27.874Z,1313
2023-02-19T09:49:30.581Z,1397
2023-02-19T09:53:18.530Z,1393
2023-02-19T09:55:14.570Z,1086
2023-02-19T09:56:52.216Z,1099
2023-02-19T09:57:50.873Z,1105
2023-02-19T09:58:50.786Z,1099
2023-02-19T09:59:50.770Z,1074
2023-02-19T10:01:51.045Z,1099
2023-02-19T10:02:50.706Z,1071
2023-02-19T10:03:50.833Z,1068
2023-02-19T10:04:50.665Z,1441
2023-02-19T10:06:50.937Z,1004
2023-02-19T10:07:50.640Z,1291
2023-02-19T10:08:50.685Z,1404
2023-02-19T10:09:50.754Z,1065
2023-02-19T10:11:50.977Z,1429
2023-02-19T10:12:50.911Z,1364
2023-02-19T10:13:50.665Z,1274
2023-02-19T10:14:50.702Z,1029
2023-02-19T10:16:50.831Z,1014
2023-02-19T10:17:50.676Z,1274
2023-02-19T10:18:50.908Z,1147
2023-02-19T10:19:50.740Z,1252
2023-02-19T10:21:50.858Z,981
2023-02-19T10:22:50.655Z,1122
2023-02-19T10:23:52.286Z,1062
2023-02-19T10:24:50.748Z,1416
2023-02-19T10:26:50.798Z,1429
2023-02-19T10:27:50.639Z,1743
2023-02-19T10:28:50.662Z,1740
2023-02-19T10:29:50.729Z,1759
2023-02-19T10:31:50.881Z,1759
2023-02-19T10:32:50.630Z,1212
2023-02-19T10:33:50.696Z,1548
2023-02-19T10:34:50.639Z,1530
2023-02-19T10:38:52.224Z,1603
2023-02-19T10:39:51.429Z,1188
2023-02-19T10:40:51.000Z,1548
2023-02-19T10:41:50.963Z,1544
2023-02-19T10:43:51.186Z,1548
2023-02-19T10:44:51.080Z,1584
2023-02-19T10:45:51.029Z,1597
2023-02-19T10:46:51.002Z,1156
2023-02-19T10:48:51.154Z,1482
2023-02-19T10:49:51.020Z,1458
2023-02-19T10:50:50.973Z,1458
2023-02-19T10:51:51.179Z,1458
2023-02-19T10:53:51.182Z,1191
2023-02-19T10:54:51.018Z,891
2023-02-19T10:55:51.053Z,1432
2023-02-19T10:56:51.023Z,1090
2023-02-19T10:58:51.181Z,1436
2023-02-19T10:59:51.028Z,1262
2023-02-19T11:00:58.714Z,1678
2023-02-19T11:03:23.588Z,1429
2023-02-19T11:05:27.503Z,1630
2023-02-19T11:07:28.006Z,1513
2023-02-19T11:08:27.644Z,1122
2023-02-19T11:09:57.109Z,1144
2023-02-19T11:10:56.935Z,1285
2023-02-19T11:11:56.988Z,1380
2023-02-19T11:12:56.985Z,1521
2023-02-19T11:14:57.965Z,1110
2023-02-19T11:16:56.937Z,1313
2023-02-19T11:17:57.042Z,1372
2023-02-19T11:19:57.169Z,1389
2023-02-19T11:20:56.945Z,1482
2023-02-19T11:21:56.993Z,1385
2023-02-19T11:22:57.010Z,1150
2023-02-19T11:24:59.382Z,1122
2023-02-19T11:25:56.933Z,1184
2023-02-19T11:32:32.068Z,1044
2023-02-19T11:33:33.094Z,1603
2023-02-19T11:34:32.017Z,1083
2023-02-19T11:35:31.974Z,874
2023-02-19T11:37:32.109Z,1118
2023-02-19T11:38:34.046Z,1191
2023-02-19T11:39:31.889Z,1220
2023-02-19T11:40:34.016Z,1630
2023-02-19T11:41:39.687Z,1580
2023-02-19T11:42:11.863Z,1499
2023-02-19T11:45:12.276Z,1776
2023-02-19T11:46:12.304Z,1356
2023-02-19T11:47:12.294Z,1759
2023-02-19T11:49:12.823Z,1928
2023-02-19T11:50:12.330Z,1688
2023-02-19T11:51:12.451Z,1630
2023-02-19T11:52:12.319Z,1692
2023-02-19T11:54:12.562Z,1711
2023-02-19T11:55:12.356Z,1792
2023-02-19T11:56:12.389Z,1321
2023-02-19T11:57:12.366Z,1743
2023-02-19T11:59:12.488Z,1349
2023-02-19T12:00:12.322Z,1544
2023-02-19T12:01:12.544Z,1482
2023-02-19T12:02:12.328Z,1178
2023-02-19T12:04:12.482Z,1364
2023-02-19T12:05:12.343Z,1231
2023-02-19T12:06:12.479Z,1228
2023-02-19T12:07:16.527Z,1201
2023-02-19T12:09:12.673Z,1159
2023-02-19T12:10:12.403Z,1231
2023-02-19T12:11:12.461Z,1252
2023-02-19T12:12:12.291Z,1678
2023-02-19T12:14:12.478Z,1507
2023-02-19T12:15:12.312Z,1056
2023-02-19T12:16:12.373Z,1507
2023-02-19T12:17:12.336Z,1245
2023-02-19T12:19:12.435Z,1198
2023-02-19T12:20:12.315Z,1181
2023-02-19T12:21:12.540Z,1608
2023-02-19T12:22:12.309Z,1171
2023-02-19T12:24:12.449Z,1174
2023-02-19T12:25:12.350Z,1538
2023-02-19T12:26:12.571Z,1465
2023-02-19T12:27:12.281Z,1047
2023-02-19T12:29:12.496Z,1453
2023-02-19T12:30:12.424Z,1122
2023-02-19T12:31:12.343Z,1270
2023-02-19T12:32:12.305Z,1041
2023-02-19T12:34:12.436Z,1462
2023-02-19T12:35:12.324Z,1792
2023-02-19T12:36:12.695Z,1195
2023-02-19T12:37:12.309Z,1525
2023-02-19T12:39:12.483Z,1238
2023-02-19T12:40:12.379Z,1558
2023-02-19T12:41:12.325Z,1416
2023-02-19T12:42:12.295Z,1144
2023-02-19T12:44:12.453Z,1224
2023-02-19T12:45:12.297Z,1491
2023-02-19T12:46:12.592Z,1150
2023-02-19T12:47:12.356Z,1150
2023-02-19T12:49:12.501Z,1453
2023-02-19T12:50:12.306Z,1850
2023-02-19T12:51:12.334Z,1860
2023-02-19T12:52:12.331Z,1393
2023-02-19T12:54:12.501Z,1416
2023-02-19T12:55:12.336Z,1178
2023-02-19T12:56:12.540Z,1503
2023-02-19T12:57:12.300Z,1521
2023-02-19T12:59:12.458Z,1204
2023-02-19T13:00:12.311Z,1150
2023-02-19T13:01:12.335Z,1413
2023-02-19T13:02:12.338Z,1252
2023-02-19T13:04:12.509Z,1380
2023-02-19T13:05:12.301Z,1009
2023-02-19T13:06:13.642Z,1090
2023-02-19T13:07:12.346Z,1465
2023-02-19T13:09:12.470Z,1372
2023-02-19T13:10:12.335Z,1584
2023-02-19T13:11:12.580Z,1643
2023-02-19T13:12:12.286Z,1706
2023-02-19T13:14:12.476Z,1643
2023-02-19T13:15:12.307Z,1872
2023-02-19T13:16:12.634Z,1330
2023-02-19T13:17:12.284Z,1933
2023-02-19T13:19:12.498Z,1759
2023-02-19T13:20:12.353Z,1654
2023-02-19T13:21:12.479Z,1242
2023-02-19T13:22:12.378Z,1530
2023-02-19T13:24:12.492Z,1198
2023-02-19T13:25:12.318Z,1425
2023-02-19T13:26:12.556Z,1702
2023-02-19T13:27:12.346Z,1334
2023-02-19T13:29:12.467Z,1860
2023-02-19T13:30:12.312Z,1558
2023-02-19T13:31:12.653Z,1174
2023-02-19T13:32:12.393Z,1038
2023-02-19T13:34:12.541Z,1538
2023-02-19T13:35:12.317Z,1491
2023-02-19T13:36:12.328Z,1630
2023-02-19T13:37:12.296Z,1215
2023-02-19T13:39:12.491Z,1503
2023-02-19T13:40:12.319Z,1743
2023-02-19T13:41:12.579Z,1393
2023-02-19T13:42:12.296Z,1776
2023-02-19T13:44:12.506Z,1478
2023-02-19T13:45:12.360Z,1574
2023-02-19T13:46:12.395Z,1099
2023-02-19T13:47:12.311Z,1445
2023-02-19T13:49:12.529Z,1389
2023-02-19T13:50:12.396Z,1242
2023-02-19T13:51:12.618Z,1285
2023-02-19T13:52:12.362Z,1776
2023-02-19T13:54:12.496Z,1201
2023-02-19T13:55:12.376Z,1754
2023-02-19T13:56:12.295Z,1711
2023-02-19T13:57:12.306Z,1815
2023-02-19T13:59:12.477Z,1295
2023-02-19T14:00:12.354Z,1855
2023-02-19T14:01:12.584Z,1201
2023-02-19T14:02:12.326Z,1673
2023-02-19T14:04:12.497Z,1029
2023-02-19T14:05:12.311Z,1376
2023-02-19T14:06:12.317Z,1697
2023-02-19T14:07:12.302Z,1299
2023-02-19T14:09:12.512Z,1400
2023-02-19T14:10:12.331Z,1659
2023-02-19T14:11:12.601Z,1207
2023-02-19T14:12:14.379Z,1128
2023-02-19T14:14:12.481Z,1702
2023-02-19T14:15:12.301Z,1865
2023-02-19T14:16:12.372Z,1372
2023-02-19T14:17:12.317Z,1569
2023-02-19T14:19:12.505Z,1639
2023-02-19T14:20:12.366Z,1728
2023-02-19T14:21:12.685Z,1717
2023-02-19T14:22:12.304Z,1639
2023-02-19T14:24:12.497Z,2041
2023-02-19T14:25:12.334Z,1538
2023-02-19T14:26:12.331Z,1955
2023-02-19T14:27:12.301Z,1978
2023-02-19T14:29:12.523Z,1630
2023-02-19T14:30:12.370Z,1565
2023-02-19T14:31:13.851Z,2116
2023-02-19T14:32:12.412Z,1590
2023-02-19T14:34:12.480Z,1295
2023-02-19T14:35:12.368Z,1499
2023-02-19T14:36:12.365Z,1663
2023-02-19T14:37:12.376Z,1360
2023-02-19T14:39:12.492Z,1879
2023-02-19T14:40:12.312Z,1900
2023-02-19T14:41:12.624Z,1840
2023-02-19T14:42:12.376Z,1458
2023-02-19T14:44:12.516Z,1798
2023-02-19T14:45:12.372Z,1397
2023-02-19T14:46:12.414Z,1815
2023-02-19T14:47:12.378Z,1389
2023-02-19T14:49:12.544Z,1245
2023-02-19T14:50:12.376Z,1711
2023-02-19T14:51:12.732Z,1634
2023-02-19T14:52:12.309Z,1302
2023-02-19T14:54:14.647Z,2659
2023-02-19T14:55:12.313Z,1491
2023-02-19T14:56:12.316Z,1404
2023-02-19T14:57:12.330Z,1879
2023-02-19T14:59:12.492Z,1928
2023-02-19T15:00:13.971Z,1513
2023-02-19T15:01:12.745Z,1890
2023-02-19T15:02:12.311Z,1580
2023-02-19T15:04:12.550Z,1548
2023-02-19T15:05:12.381Z,1474
2023-02-19T15:06:12.325Z,1937
2023-02-19T15:07:12.387Z,1937
2023-02-19T15:09:12.582Z,1597
2023-02-19T15:10:12.346Z,1805
2023-02-19T15:11:12.643Z,1408
2023-02-19T15:12:12.321Z,1900
2023-02-19T15:14:12.498Z,1569
2023-02-19T15:15:12.403Z,2072
2023-02-19T15:16:12.402Z,1594
2023-02-19T15:17:12.328Z,2092
2023-02-19T15:19:12.515Z,1706
2023-02-19T15:20:12.385Z,1400
2023-02-19T15:21:12.580Z,1872
2023-02-19T15:22:12.410Z,1669
2023-02-19T15:24:12.536Z,1905
2023-02-19T15:25:12.327Z,2300
2023-02-19T15:26:12.368Z,2134
2023-02-19T15:27:12.327Z,1603
2023-02-19T15:29:12.517Z,2056
2023-02-19T15:30:12.358Z,1900
2023-02-19T15:31:12.727Z,2318
2023-02-19T15:32:12.374Z,2408
2023-02-19T15:34:12.510Z,2247
2023-02-19T15:35:12.359Z,2041
2023-02-19T15:36:12.338Z,1389
2023-02-19T15:37:12.332Z,2056
2023-02-19T15:39:12.526Z,2102
2023-02-19T15:40:12.337Z,2195
2023-02-19T15:41:12.695Z,1776
2023-02-19T15:42:12.362Z,1711
2023-02-19T15:44:12.527Z,2247
2023-02-19T15:45:12.368Z,2078
2023-02-19T15:46:12.390Z,2041
2023-02-19T15:47:12.347Z,1507
2023-02-19T15:49:12.552Z,1548
2023-02-19T15:50:12.437Z,1584
2023-02-19T15:51:12.617Z,1597
2023-02-19T15:52:12.339Z,1408
2023-02-19T15:54:12.555Z,1569
2023-02-19T15:55:12.401Z,2146
2023-02-19T15:56:12.344Z,2234
2023-02-19T15:57:12.398Z,2012
2023-02-19T15:59:12.538Z,1562
2023-02-19T16:00:12.433Z,1749
2023-02-19T16:01:12.696Z,1787
2023-02-19T16:02:12.407Z,1743
2023-02-19T16:04:12.550Z,1850
2023-02-19T16:05:12.367Z,1626
2023-02-19T16:06:12.411Z,1933
2023-02-19T16:07:12.344Z,1552
2023-02-19T16:09:12.533Z,2017
2023-02-19T16:10:12.421Z,1574
2023-02-19T16:11:12.593Z,1728
2023-02-19T16:12:12.362Z,2272
2023-02-19T16:14:12.532Z,1728
2023-02-19T16:15:12.417Z,1787
2023-02-19T16:16:14.928Z,1728
2023-02-19T16:17:12.392Z,1692
2023-02-19T16:19:12.546Z,2300
2023-02-19T16:20:12.349Z,2259
2023-02-19T16:21:12.650Z,1688
2023-02-19T16:22:12.389Z,1626
2023-02-19T16:24:12.556Z,1017
2023-02-19T16:25:12.367Z,2388
2023-02-19T16:26:12.418Z,1860
2023-02-19T16:27:12.376Z,1762
2023-02-19T16:29:12.560Z,2247
2023-02-19T16:30:12.437Z,2056
2023-02-19T16:31:12.625Z,2394
2023-02-19T16:32:12.455Z,2618
2023-02-19T16:34:12.544Z,2134
2023-02-19T16:35:12.379Z,2176
2023-02-19T16:36:12.383Z,2152
2023-02-19T16:37:12.380Z,2068
2023-02-19T16:39:12.537Z,2445
2023-02-19T16:40:12.417Z,2162
2023-02-19T16:41:12.663Z,2560
2023-02-19T16:42:12.423Z,2056
2023-02-19T16:44:12.555Z,2725
2023-02-19T16:45:12.377Z,2128
2023-02-19T16:46:12.461Z,2741
2023-02-19T16:47:12.387Z,2092
2023-02-19T16:49:12.572Z,1944
2023-02-19T16:50:12.360Z,2514
2023-02-19T16:51:12.706Z,1912
2023-02-19T16:52:12.420Z,2537
2023-02-19T16:54:12.556Z,2452
2023-02-19T16:55:12.416Z,2640
2023-02-19T16:56:12.369Z,2158
2023-02-19T16:57:12.370Z,1905
2023-02-19T16:59:12.566Z,2116
2023-02-19T17:00:12.381Z,2501
2023-02-19T17:01:12.750Z,1825
2023-02-19T17:02:12.408Z,2414
2023-02-19T17:04:12.621Z,1663
2023-02-19T17:05:12.382Z,1900
2023-02-19T17:06:12.427Z,1879
2023-02-19T17:07:12.432Z,1900
2023-02-19T17:09:12.564Z,1916
2023-02-19T17:10:12.372Z,2152
2023-02-19T17:11:12.630Z,2176
2023-02-19T17:12:12.373Z,1900
2023-02-19T17:14:12.626Z,2414
2023-02-19T17:15:12.427Z,1944
2023-02-19T17:16:12.387Z,2489
2023-02-19T17:17:12.365Z,2530
2023-02-19T17:19:12.551Z,1835
2023-02-19T17:20:12.394Z,2494